Time;durP1;ratioP1;P1;durP2;ratioP2;P2;SDS_P1;SDS_P2;PMS_P1;PMS_P2;Temp;Humidity;BMP_temperature;BMP_pressure;BME280_temperature;BME280_humidity;BME280_pressure;Samples;Min_cycle;Max_cycle;Signal;HPM_P1;HPM_P2
2021/06/29 00:02:25;;;;;;;17.75;13.93;;;20.90;95.10;;;;;;5034929;28;20044;-67
2021/06/29 00:04:51;;;;;;;15.93;13.80;;;20.90;95.10;;;;;;5035894;28;20020;-67
2021/06/29 00:07:17;;;;;;;16.25;14.60;;;20.90;95.20;;;;;;5034090;28;20026;-67
2021/06/29 00:09:43;;;;;;;15.23;13.48;;;20.90;95.30;;;;;;5035607;28;20029;-67
2021/06/29 00:12:09;;;;;;;15.02;13.52;;;20.90;95.40;;;;;;5033227;28;20029;-67
2021/06/29 00:14:35;;;;;;;15.52;14.00;;;20.90;95.50;;;;;;5034378;28;20048;-67
2021/06/29 00:17:01;;;;;;;16.08;14.35;;;20.90;95.60;;;;;;5037877;28;20469;-67
2021/06/29 00:19:26;;;;;;;15.40;13.77;;;20.80;95.60;;;;;;5034616;28;20103;-67
2021/06/29 00:21:52;;;;;;;16.73;14.88;;;20.80;95.70;;;;;;5034320;28;20029;-67
2021/06/29 00:24:17;;;;;;;15.95;14.23;;;20.80;95.80;;;;;;5032606;28;20033;-67
2021/06/29 00:26:43;;;;;;;17.17;15.35;;;20.80;95.80;;;;;;5033820;28;20057;-67
2021/06/29 00:29:09;;;;;;;18.95;15.18;;;20.80;95.90;;;;;;5033002;28;20025;-67
2021/06/29 00:31:34;;;;;;;15.43;13.73;;;20.80;96.00;;;;;;5035011;28;20040;-67
2021/06/29 00:34:00;;;;;;;17.55;15.40;;;20.80;96.00;;;;;;5037094;28;20056;-67
2021/06/29 00:36:26;;;;;;;16.35;14.70;;;20.80;96.10;;;;;;5034454;28;20025;-67
2021/06/29 00:38:51;;;;;;;16.42;14.82;;;20.80;96.20;;;;;;5034068;28;20498;-67
2021/06/29 00:41:17;;;;;;;17.80;15.50;;;20.80;96.20;;;;;;5033621;28;20067;-67
2021/06/29 00:43:47;;;;;;;18.88;14.90;;;20.70;96.30;;;;;;5035155;28;20071;-67
2021/06/29 00:46:12;;;;;;;16.83;15.05;;;20.80;96.40;;;;;;5031073;28;20477;-67
2021/06/29 00:48:38;;;;;;;18.20;15.45;;;20.80;96.40;;;;;;5034996;28;20068;-67
2021/06/29 00:51:03;;;;;;;17.98;16.13;;;20.80;96.50;;;;;;5036892;28;20056;-67
2021/06/29 00:53:29;;;;;;;19.40;16.63;;;20.80;96.50;;;;;;5034446;28;20035;-67
2021/06/29 00:55:55;;;;;;;19.77;17.23;;;20.80;96.50;;;;;;5033874;28;20049;-67
2021/06/29 00:58:20;;;;;;;20.30;17.55;;;20.80;96.50;;;;;;5037322;28;20603;-67
2021/06/29 01:00:46;;;;;;;18.85;16.83;;;20.80;96.60;;;;;;5034194;28;20026;-67
2021/06/29 01:03:12;;;;;;;18.63;16.70;;;20.80;96.60;;;;;;5035726;28;20052;-67
2021/06/29 01:05:38;;;;;;;18.73;16.73;;;20.80;96.70;;;;;;5032245;28;20645;-67
2021/06/29 01:08:04;;;;;;;20.45;18.00;;;20.70;96.80;;;;;;5033911;28;20021;-67
2021/06/29 01:10:29;;;;;;;19.63;17.52;;;20.70;96.90;;;;;;5032593;28;20025;-67
2021/06/29 01:12:55;;;;;;;20.52;16.98;;;20.70;97.00;;;;;;5032344;28;20465;-67
2021/06/29 01:15:24;;;;;;;21.52;17.88;;;20.70;97.10;;;;;;5036904;28;20025;-67
2021/06/29 01:17:54;;;;;;;19.93;17.33;;;20.70;97.10;;;;;;5035762;28;20473;-67
2021/06/29 01:20:24;;;;;;;19.33;17.23;;;20.70;97.20;;;;;;5032884;28;20576;-67
2021/06/29 01:22:54;;;;;;;20.20;18.02;;;20.70;97.20;;;;;;5031126;28;20030;-67
2021/06/29 01:25:22;;;;;;;18.73;16.70;;;20.70;97.30;;;;;;5033073;28;20476;-67
2021/06/29 01:32:57;;;;;;;18.85;16.83;;;20.70;97.50;;;;;;5033771;28;20478;-67
2021/06/29 01:35:23;;;;;;;19.83;16.98;;;20.60;97.50;;;;;;5036098;28;20025;-68
2021/06/29 01:37:51;;;;;;;19.35;17.30;;;20.60;97.60;;;;;;5038954;28;20021;-67
2021/06/29 01:40:26;;;;;;;19.67;16.80;;;20.60;97.70;;;;;;5033937;28;20493;-68
2021/06/29 01:42:57;;;;;;;19.00;16.05;;;20.60;97.80;;;;;;5032808;28;20028;-68
2021/06/29 01:45:23;;;;;;;18.83;16.77;;;20.60;97.80;;;;;;5032617;28;20022;-67
2021/06/29 01:47:54;;;;;;;18.35;16.20;;;20.50;97.90;;;;;;5034433;28;20036;-67
2021/06/29 01:50:21;;;;;;;19.38;17.27;;;20.50;98.00;;;;;;5034447;28;20093;-67
2021/06/29 01:52:52;;;;;;;19.92;17.83;;;20.50;98.10;;;;;;5034342;28;20121;-67
2021/06/29 01:55:18;;;;;;;20.23;17.77;;;20.40;98.10;;;;;;5033202;28;20032;-67
2021/06/29 01:57:46;;;;;;;18.20;16.23;;;20.40;98.20;;;;;;5032055;28;20018;-69
2021/06/29 02:00:13;;;;;;;22.02;17.83;;;20.40;98.30;;;;;;5035759;28;20021;-67
2021/06/29 02:02:39;;;;;;;20.73;15.85;;;20.40;98.30;;;;;;5033557;28;20029;-68
2021/06/29 02:05:05;;;;;;;16.30;14.52;;;20.40;98.30;;;;;;5034797;28;20087;-67
2021/06/29 02:07:30;;;;;;;16.73;14.98;;;20.40;98.30;;;;;;5032678;28;20048;-67
2021/06/29 02:09:56;;;;;;;17.88;15.95;;;20.40;98.40;;;;;;5033083;28;20068;-68
2021/06/29 02:12:21;;;;;;;23.13;15.75;;;20.40;98.40;;;;;;5031870;28;20388;-68
2021/06/29 02:14:47;;;;;;;17.17;14.88;;;20.40;98.40;;;;;;5031387;28;20029;-67
2021/06/29 02:17:12;;;;;;;17.83;14.73;;;20.40;98.50;;;;;;5038015;28;20548;-67
2021/06/29 02:19:38;;;;;;;20.00;16.30;;;20.40;98.60;;;;;;5033302;28;20710;-68
2021/06/29 02:22:06;;;;;;;18.40;16.13;;;20.40;98.60;;;;;;5035249;28;20025;-67
2021/06/29 02:24:32;;;;;;;20.27;16.67;;;20.40;98.60;;;;;;5035058;28;20017;-67
2021/06/29 02:26:57;;;;;;;18.35;16.23;;;20.40;98.70;;;;;;5036441;28;20029;-67
2021/06/29 02:29:23;;;;;;;18.98;16.75;;;20.30;98.70;;;;;;5035419;28;20075;-67
2021/06/29 02:31:48;;;;;;;17.90;16.13;;;20.40;98.80;;;;;;5036038;28;20029;-67
2021/06/29 02:34:14;;;;;;;17.30;15.50;;;20.30;98.80;;;;;;5038559;28;20029;-67
2021/06/29 02:36:39;;;;;;;18.33;15.80;;;20.30;98.80;;;;;;5036581;28;20021;-67
2021/06/29 02:39:05;;;;;;;19.23;16.83;;;20.30;98.80;;;;;;5038093;28;20022;-67
2021/06/29 02:41:31;;;;;;;21.05;17.33;;;20.30;98.90;;;;;;5036015;28;20030;-67
2021/06/29 02:43:56;;;;;;;23.55;19.05;;;20.30;98.90;;;;;;5036268;28;20028;-69
2021/06/29 02:46:22;;;;;;;21.50;18.50;;;20.30;98.90;;;;;;5033843;28;20013;-67
2021/06/29 02:48:48;;;;;;;21.50;18.55;;;20.30;98.90;;;;;;5035534;28;20474;-68
2021/06/29 02:51:14;;;;;;;21.10;18.73;;;20.30;99.00;;;;;;5038217;28;20017;-68
2021/06/29 02:53:40;;;;;;;21.23;18.73;;;20.40;99.00;;;;;;5035321;28;20021;-67
2021/06/29 02:56:05;;;;;;;21.58;18.95;;;20.30;99.10;;;;;;5036491;28;20087;-67
2021/06/29 02:58:31;;;;;;;22.42;19.42;;;20.30;99.10;;;;;;5037066;28;20021;-67
2021/06/29 03:00:56;;;;;;;21.35;17.95;;;20.30;99.10;;;;;;5036850;28;20104;-68
2021/06/29 03:03:22;;;;;;;20.17;17.92;;;20.30;99.20;;;;;;5038152;28;20473;-68
2021/06/29 03:05:47;;;;;;;21.08;17.95;;;20.30;99.20;;;;;;5035606;28;20053;-67
2021/06/29 03:08:13;;;;;;;24.73;17.67;;;20.20;99.20;;;;;;5036426;28;20096;-68
2021/06/29 03:10:39;;;;;;;19.65;17.42;;;20.20;99.30;;;;;;5035093;28;20578;-67
2021/06/29 03:13:04;;;;;;;21.67;18.60;;;20.20;99.30;;;;;;5034872;28;20354;-68
2021/06/29 03:15:30;;;;;;;21.65;18.52;;;20.20;99.30;;;;;;5035581;28;20064;-68
2021/06/29 03:17:55;;;;;;;22.17;18.00;;;20.20;99.30;;;;;;5038924;28;20018;-67
2021/06/29 03:20:21;;;;;;;24.52;20.95;;;20.20;99.40;;;;;;5036127;28;20045;-68
2021/06/29 03:22:46;;;;;;;24.30;20.60;;;20.10;99.40;;;;;;5035561;28;20378;-67
2021/06/29 03:25:13;;;;;;;25.13;21.35;;;20.00;99.50;;;;;;5034901;28;20060;-67
2021/06/29 03:27:38;;;;;;;26.63;22.38;;;20.00;99.60;;;;;;5034637;28;20024;-67
2021/06/29 03:30:05;;;;;;;22.77;19.88;;;19.80;99.80;;;;;;5034455;28;20014;-67
2021/06/29 03:32:31;;;;;;;20.58;18.05;;;19.80;99.90;;;;;;5036489;28;20067;-67
2021/06/29 03:34:56;;;;;;;21.20;18.42;;;19.90;99.90;;;;;;5033577;28;20025;-67
2021/06/29 03:37:22;;;;;;;22.27;18.77;;;19.80;99.90;;;;;;5037436;28;20096;-68
2021/06/29 03:39:47;;;;;;;22.05;19.48;;;19.90;99.90;;;;;;5035297;28;20449;-67
2021/06/29 03:42:13;;;;;;;22.63;18.13;;;19.90;99.90;;;;;;5034588;28;20384;-67
2021/06/29 03:44:39;;;;;;;22.15;17.83;;;20.00;99.90;;;;;;5034361;28;20029;-67
2021/06/29 03:47:04;;;;;;;23.83;19.00;;;20.00;99.90;;;;;;5033918;28;20049;-67
2021/06/29 03:49:30;;;;;;;21.40;17.88;;;20.00;99.90;;;;;;5034668;28;20061;-68
2021/06/29 03:51:57;;;;;;;22.73;18.52;;;20.00;99.90;;;;;;5034625;28;20029;-67
2021/06/29 03:54:22;;;;;;;23.42;19.13;;;20.00;99.90;;;;;;5037234;28;20155;-67
2021/06/29 03:56:48;;;;;;;21.00;18.30;;;20.00;99.90;;;;;;5032344;28;20445;-68
2021/06/29 03:59:14;;;;;;;20.95;18.38;;;20.00;99.90;;;;;;5034816;28;20025;-67
2021/06/29 04:01:40;;;;;;;21.20;18.70;;;20.10;99.90;;;;;;5037811;28;20029;-67
2021/06/29 04:04:06;;;;;;;22.63;17.10;;;20.10;99.90;;;;;;5033835;28;20014;-67
2021/06/29 04:06:36;;;;;;;26.58;22.17;;;20.10;99.90;;;;;;5034604;28;20048;-68
2021/06/29 04:09:05;;;;;;;27.70;22.33;;;20.00;99.90;;;;;;5034206;28;20032;-68
2021/06/29 04:11:31;;;;;;;25.05;21.13;;;19.90;99.90;;;;;;5034297;28;20027;-68
2021/06/29 04:13:57;;;;;;;23.65;19.15;;;19.90;99.90;;;;;;5033341;28;20029;-67
2021/06/29 04:16:23;;;;;;;24.08;18.77;;;19.90;99.90;;;;;;5038165;28;20071;-67
2021/06/29 04:18:48;;;;;;;21.48;17.88;;;19.90;99.90;;;;;;5037195;28;20033;-68
2021/06/29 04:21:15;;;;;;;21.58;17.85;;;19.90;99.90;;;;;;5034768;28;20060;-67
2021/06/29 04:23:44;;;;;;;18.90;16.48;;;19.90;99.90;;;;;;5035699;28;20393;-67
2021/06/29 04:26:16;;;;;;;19.27;16.95;;;19.90;99.90;;;;;;5033950;28;20053;-67
2021/06/29 04:28:42;;;;;;;20.10;17.35;;;20.00;99.90;;;;;;5033927;28;20021;-67
2021/06/29 04:31:08;;;;;;;20.20;16.92;;;20.00;99.90;;;;;;5032957;28;20017;-68
2021/06/29 04:33:33;;;;;;;21.10;18.17;;;20.00;99.90;;;;;;5036811;28;20071;-67
2021/06/29 04:35:59;;;;;;;20.35;17.55;;;20.00;99.90;;;;;;5036135;28;20072;-68
2021/06/29 04:38:24;;;;;;;20.73;17.52;;;20.00;99.90;;;;;;5034525;28;20017;-67
2021/06/29 04:40:50;;;;;;;20.13;17.23;;;20.10;99.90;;;;;;5035517;28;20477;-67
2021/06/29 04:43:15;;;;;;;19.08;17.05;;;20.10;99.90;;;;;;5033760;28;20032;-68
2021/06/29 04:45:41;;;;;;;21.90;16.92;;;20.00;99.90;;;;;;5033214;28;20512;-68
2021/06/29 04:48:07;;;;;;;20.33;16.55;;;20.10;99.90;;;;;;5032728;28;20029;-67
2021/06/29 04:50:34;;;;;;;19.48;17.02;;;20.10;99.90;;;;;;5034191;28;20060;-68
2021/06/29 04:52:59;;;;;;;27.73;20.40;;;20.10;99.90;;;;;;5032479;28;20493;-68
2021/06/29 04:55:25;;;;;;;25.42;21.15;;;20.10;99.90;;;;;;5035049;28;20059;-67
2021/06/29 04:57:50;;;;;;;24.77;20.17;;;20.10;99.90;;;;;;5031443;28;20036;-67
2021/06/29 05:00:18;;;;;;;27.42;21.77;;;20.10;99.90;;;;;;5032630;28;20056;-67
2021/06/29 05:02:44;;;;;;;24.80;20.17;;;20.10;99.90;;;;;;5033094;28;20119;-67
2021/06/29 05:05:11;;;;;;;24.95;21.23;;;20.10;99.90;;;;;;5033357;28;20493;-67
2021/06/29 05:07:38;;;;;;;25.88;23.08;;;20.10;99.90;;;;;;5032722;28;20030;-68
2021/06/29 05:10:08;;;;;;;26.00;22.00;;;20.20;99.90;;;;;;5033085;28;20438;-68
2021/06/29 05:12:34;;;;;;;27.73;22.27;;;20.20;99.90;;;;;;5032801;28;20481;-67
2021/06/29 05:14:59;;;;;;;27.42;23.05;;;20.20;99.90;;;;;;5032816;28;20029;-68
2021/06/29 05:17:25;;;;;;;33.25;26.00;;;20.10;99.90;;;;;;5044222;28;20171;-68
2021/06/29 05:19:51;;;;;;;28.00;23.67;;;20.20;99.90;;;;;;5034837;28;20049;-67
2021/06/29 05:22:16;;;;;;;26.63;22.42;;;20.20;99.90;;;;;;5052646;28;20420;-68
2021/06/29 05:24:42;;;;;;;27.60;23.52;;;20.20;99.90;;;;;;5051396;28;20032;-67
2021/06/29 05:27:08;;;;;;;31.45;25.85;;;20.20;99.90;;;;;;5052557;28;20036;-68
2021/06/29 05:29:33;;;;;;;27.73;23.80;;;20.20;99.90;;;;;;5052298;28;20032;-68
2021/06/29 05:31:59;;;;;;;28.30;23.10;;;20.20;99.90;;;;;;5052411;28;20021;-68
2021/06/29 05:34:24;;;;;;;28.00;22.20;;;20.20;99.90;;;;;;5052706;28;20017;-67
2021/06/29 05:36:50;;;;;;;25.88;22.10;;;20.20;99.90;;;;;;5052036;28;20029;-68
2021/06/29 05:39:17;;;;;;;26.85;23.42;;;20.20;99.90;;;;;;5052294;28;20028;-68
2021/06/29 05:41:43;;;;;;;30.73;23.83;;;20.20;99.90;;;;;;5052193;28;20023;-68
2021/06/29 05:44:08;;;;;;;28.25;23.20;;;20.20;99.90;;;;;;5051965;28;20021;-68
2021/06/29 05:46:34;;;;;;;25.25;21.27;;;20.20;99.90;;;;;;5050722;28;20032;-68
2021/06/29 05:49:02;;;;;;;26.40;20.83;;;20.30;99.90;;;;;;5052348;28;20035;-68
2021/06/29 05:51:28;;;;;;;26.52;21.77;;;20.30;99.90;;;;;;5052482;28;20017;-68
2021/06/29 05:53:53;;;;;;;32.63;25.15;;;20.30;99.90;;;;;;5052400;28;20025;-68
2021/06/29 05:56:19;;;;;;;28.38;24.08;;;20.30;99.90;;;;;;5057395;28;20025;-68
2021/06/29 05:58:44;;;;;;;27.83;23.88;;;20.40;99.90;;;;;;5055622;28;20025;-68
2021/06/29 06:01:10;;;;;;;29.48;22.55;;;20.40;99.90;;;;;;5054903;28;20021;-68
2021/06/29 06:03:35;;;;;;;27.33;21.10;;;20.40;99.90;;;;;;5056015;28;20515;-68
2021/06/29 06:06:01;;;;;;;27.00;21.42;;;20.40;99.90;;;;;;5056231;28;20114;-68
2021/06/29 06:08:26;;;;;;;26.38;22.30;;;20.40;99.90;;;;;;5053317;28;20036;-68
2021/06/29 06:10:55;;;;;;;26.60;22.60;;;20.40;99.90;;;;;;5055421;28;20036;-68
2021/06/29 06:13:21;;;;;;;26.65;21.55;;;20.40;99.90;;;;;;5055043;28;20378;-67
2021/06/29 06:15:48;;;;;;;24.58;21.25;;;20.40;99.90;;;;;;5054194;28;20040;-67
2021/06/29 06:18:13;;;;;;;23.80;20.17;;;20.40;99.90;;;;;;5053867;28;20017;-68
2021/06/29 06:20:39;;;;;;;25.48;21.83;;;20.40;99.90;;;;;;5055644;28;20049;-68
2021/06/29 06:23:06;;;;;;;28.85;22.55;;;20.40;99.90;;;;;;5055691;28;20025;-69
2021/06/29 06:25:32;;;;;;;27.73;23.15;;;20.40;99.90;;;;;;5055673;28;20104;-69
2021/06/29 06:28:17;;;;;;;28.75;22.85;;;20.40;99.90;;;;;;5062261;28;20048;-69
2021/06/29 06:30:42;;;;;;;28.73;24.08;;;20.30;99.90;;;;;;5054456;28;20396;-68
2021/06/29 06:33:09;;;;;;;28.90;24.67;;;20.40;99.90;;;;;;5055524;28;20025;-68
2021/06/29 06:35:35;;;;;;;32.35;26.17;;;20.40;99.90;;;;;;5029056;28;20242;-68
2021/06/29 06:38:01;;;;;;;24.85;22.05;;;20.40;99.90;;;;;;5031573;28;21167;-68
2021/06/29 06:40:27;;;;;;;29.20;23.73;;;20.50;99.90;;;;;;5049030;28;20028;-68
2021/06/29 06:42:53;;;;;;;29.60;24.70;;;20.60;99.90;;;;;;5055701;28;20393;-68
2021/06/29 06:45:22;;;;;;;31.10;24.40;;;20.60;99.90;;;;;;5055421;28;20032;-68
2021/06/29 06:47:48;;;;;;;25.67;22.35;;;20.70;99.90;;;;;;5053858;28;20029;-68
2021/06/29 06:50:15;;;;;;;24.70;21.67;;;20.70;99.90;;;;;;5047570;28;20045;-68
2021/06/29 06:52:40;;;;;;;27.10;21.98;;;20.70;99.90;;;;;;5029913;28;20443;-68
2021/06/29 06:55:06;;;;;;;23.58;19.85;;;20.60;99.90;;;;;;5032289;28;20020;-68
2021/06/29 06:57:32;;;;;;;28.58;23.27;;;20.60;99.90;;;;;;5053578;28;20059;-68
2021/06/29 06:59:57;;;;;;;28.60;23.52;;;20.60;99.90;;;;;;5055081;28;20057;-68
2021/06/29 07:02:23;;;;;;;24.30;21.10;;;20.60;99.90;;;;;;5055071;28;20036;-68
2021/06/29 07:04:48;;;;;;;28.00;21.92;;;20.70;99.90;;;;;;5055020;28;20033;-68
2021/06/29 07:07:14;;;;;;;32.90;26.52;;;20.70;99.90;;;;;;5054870;28;20021;-69
2021/06/29 07:09:40;;;;;;;35.17;28.45;;;20.80;99.90;;;;;;5054323;28;20512;-69
2021/06/29 07:12:06;;;;;;;30.00;24.83;;;20.80;99.90;;;;;;5053634;28;20500;-68
2021/06/29 07:14:31;;;;;;;30.38;25.75;;;20.80;99.90;;;;;;5053504;28;20374;-68
2021/06/29 07:16:57;;;;;;;33.05;26.35;;;20.80;99.90;;;;;;5054778;28;20519;-68
2021/06/29 07:19:22;;;;;;;37.40;29.98;;;20.80;99.90;;;;;;5054327;28;20096;-68
2021/06/29 07:21:48;;;;;;;39.10;31.15;;;20.80;99.90;;;;;;5053055;28;20036;-68
2021/06/29 07:24:13;;;;;;;41.33;33.10;;;20.90;99.90;;;;;;5054366;28;20033;-69
2021/06/29 07:26:39;;;;;;;38.70;30.40;;;20.90;99.90;;;;;;5054402;28;20048;-68
2021/06/29 07:29:05;;;;;;;42.65;31.95;;;20.90;99.90;;;;;;5054457;28;20025;-68
2021/06/29 07:31:31;;;;;;;41.70;33.75;;;21.00;99.90;;;;;;5054414;28;20033;-68
2021/06/29 07:33:57;;;;;;;45.28;36.13;;;21.00;99.90;;;;;;5054396;28;20029;-68
2021/06/29 07:36:22;;;;;;;45.90;36.92;;;21.00;99.90;;;;;;5054414;28;20032;-68
2021/06/29 07:38:48;;;;;;;45.13;34.85;;;21.00;99.90;;;;;;5054200;28;20033;-68
2021/06/29 07:41:15;;;;;;;37.10;30.35;;;20.90;99.90;;;;;;5053958;28;20017;-68
2021/06/29 07:43:41;;;;;;;46.65;36.30;;;21.00;99.90;;;;;;5054158;28;20576;-68
2021/06/29 07:46:07;;;;;;;40.90;32.65;;;21.00;99.90;;;;;;5053783;28;20120;-68
2021/06/29 07:48:33;;;;;;;35.00;28.30;;;21.00;99.90;;;;;;5054058;28;20029;-68
2021/06/29 07:50:59;;;;;;;41.15;32.40;;;21.10;99.90;;;;;;5054119;28;20384;-68
2021/06/29 07:53:24;;;;;;;38.75;30.15;;;21.10;99.90;;;;;;5053985;28;20388;-68
2021/06/29 07:55:50;;;;;;;42.75;33.95;;;21.10;99.90;;;;;;5052420;28;20052;-68
2021/06/29 07:58:19;;;;;;;50.55;39.05;;;21.20;99.90;;;;;;5053939;28;20025;-68
2021/06/29 08:00:45;;;;;;;47.43;38.37;;;21.20;99.90;;;;;;5053935;28;20021;-68
2021/06/29 08:03:11;;;;;;;45.50;34.53;;;21.20;99.90;;;;;;5052752;28;20350;-68
2021/06/29 08:05:37;;;;;;;42.83;32.95;;;21.30;99.90;;;;;;5052436;28;20120;-68
2021/06/29 08:08:05;;;;;;;47.45;35.72;;;21.30;99.80;;;;;;5053637;28;20056;-68
2021/06/29 08:10:31;;;;;;;43.85;34.97;;;21.40;99.70;;;;;;5053633;28;20100;-68
2021/06/29 08:12:57;;;;;;;43.78;35.25;;;21.50;99.50;;;;;;5052435;28;20116;-68
2021/06/29 08:15:23;;;;;;;47.25;37.03;;;21.60;99.40;;;;;;5053658;28;20124;-68
2021/06/29 08:17:49;;;;;;;44.20;34.22;;;21.60;99.20;;;;;;5053373;28;20017;-68
2021/06/29 08:20:16;;;;;;;43.08;33.17;;;21.70;99.10;;;;;;5051342;28;20045;-68
2021/06/29 08:22:42;;;;;;;48.25;38.28;;;21.80;99.00;;;;;;5053391;28;20040;-68
2021/06/29 08:25:09;;;;;;;42.55;33.65;;;21.80;98.90;;;;;;5053434;28;20469;-68
2021/06/29 08:27:35;;;;;;;48.15;36.90;;;21.80;98.80;;;;;;5053158;28;20020;-68
2021/06/29 08:30:02;;;;;;;54.83;39.67;;;21.80;98.60;;;;;;5053475;28;20033;-68
2021/06/29 08:32:28;;;;;;;45.42;34.80;;;21.80;98.40;;;;;;5052199;28;20056;-68
2021/06/29 08:34:54;;;;;;;51.88;37.92;;;21.90;98.40;;;;;;5053087;28;20186;-68
2021/06/29 08:37:21;;;;;;;53.97;40.47;;;22.00;98.20;;;;;;5053254;28;20013;-69
2021/06/29 08:39:47;;;;;;;51.40;39.55;;;22.20;97.80;;;;;;5053178;28;20021;-68
2021/06/29 08:42:13;;;;;;;54.05;39.80;;;22.40;97.30;;;;;;5051887;28;20025;-68
2021/06/29 08:44:40;;;;;;;47.30;36.03;;;22.50;97.00;;;;;;5053349;28;20388;-68
2021/06/29 08:47:08;;;;;;;57.92;43.30;;;22.70;96.70;;;;;;5051800;28;20029;-68
2021/06/29 08:49:33;;;;;;;44.47;34.50;;;22.80;96.20;;;;;;5051516;28;20052;-69
2021/06/29 08:51:59;;;;;;;40.95;32.00;;;22.90;96.20;;;;;;5052975;28;20076;-68
2021/06/29 08:54:24;;;;;;;45.92;35.53;;;22.90;96.00;;;;;;5053100;28;20028;-68
2021/06/29 08:56:50;;;;;;;45.83;34.95;;;22.90;95.80;;;;;;5052661;28;20029;-68
2021/06/29 08:59:15;;;;;;;47.40;36.45;;;22.90;95.60;;;;;;5051507;28;20025;-68
2021/06/29 09:01:41;;;;;;;44.55;34.70;;;22.90;95.40;;;;;;5051325;28;20024;-67
2021/06/29 09:04:07;;;;;;;54.40;40.40;;;23.00;95.30;;;;;;5051495;28;20031;-67
2021/06/29 09:06:40;;;;;;;45.15;34.53;;;23.10;94.90;;;;;;5052862;28;20052;-67
2021/06/29 09:09:27;;;;;;;39.60;32.78;;;23.30;94.60;;;;;;5052875;28;20021;-67
2021/06/29 09:11:53;;;;;;;46.90;36.55;;;23.40;94.40;;;;;;5052424;28;20514;-67
2021/06/29 09:14:19;;;;;;;46.45;35.95;;;23.40;94.10;;;;;;5051584;28;20063;-67
2021/06/29 09:16:46;;;;;;;45.15;34.85;;;23.60;93.90;;;;;;5052462;28;20028;-67
2021/06/29 09:19:12;;;;;;;40.05;32.28;;;23.60;93.60;;;;;;5051282;28;20048;-67
2021/06/29 09:21:38;;;;;;;40.80;32.55;;;23.60;93.50;;;;;;5052543;28;20036;-67
2021/06/29 09:24:05;;;;;;;38.42;30.65;;;23.50;93.50;;;;;;5052681;28;20017;-67
2021/06/29 09:26:36;;;;;;;36.55;28.45;;;23.40;93.50;;;;;;5051244;28;20366;-67
2021/06/29 09:29:03;;;;;;;43.13;33.72;;;23.40;93.60;;;;;;5052413;28;20051;-68
2021/06/29 09:31:33;;;;;;;43.33;33.05;;;23.30;93.60;;;;;;5054162;28;20048;-68
2021/06/29 09:34:01;;;;;;;32.38;26.98;;;23.30;93.60;;;;;;5056679;28;20460;-68
2021/06/29 09:36:29;;;;;;;34.53;26.90;;;23.30;93.70;;;;;;5056734;28;20032;-68
2021/06/29 09:38:57;;;;;;;38.45;30.70;;;23.30;93.70;;;;;;5056601;28;20483;-68
2021/06/29 09:41:24;;;;;;;41.00;30.05;;;23.40;93.70;;;;;;5056693;28;20059;-68
2021/06/29 09:43:53;;;;;;;43.72;32.67;;;23.50;93.70;;;;;;5056259;28;20033;-68
2021/06/29 09:46:21;;;;;;;42.80;32.07;;;23.60;93.50;;;;;;5055269;28;20383;-68
2021/06/29 09:48:50;;;;;;;40.83;29.92;;;23.80;93.20;;;;;;5056492;28;20025;-67
2021/06/29 09:51:20;;;;;;;;;;;23.80;93.00;;;;;;5056830;28;20049;-67
2021/06/29 09:53:48;;;;;;;46.17;31.17;;;23.70;92.70;;;;;;5056222;28;19912;-67
2021/06/29 09:56:16;;;;;;;42.65;31.00;;;23.70;92.70;;;;;;5055023;28;20380;-67
2021/06/29 09:58:50;;;;;;;43.58;32.22;;;23.70;92.60;;;;;;5056075;28;20492;-67
2021/06/29 10:01:18;;;;;;;47.95;34.45;;;23.80;92.50;;;;;;5056280;28;20084;-67
2021/06/29 10:03:45;;;;;;;41.80;30.70;;;23.80;92.70;;;;;;5056110;28;20108;-67
2021/06/29 10:06:16;;;;;;;39.03;29.77;;;23.90;92.40;;;;;;5056104;28;20029;-67
2021/06/29 10:08:44;;;;;;;39.15;29.17;;;24.00;92.30;;;;;;5056054;28;20021;-67
2021/06/29 10:11:21;;;;;;;39.92;30.08;;;24.20;92.20;;;;;;5054753;28;20095;-67
2021/06/29 10:13:57;;;;;;;40.17;29.10;;;24.40;91.90;;;;;;5055764;28;20125;-67
2021/06/29 10:16:25;;;;;;;37.08;29.20;;;24.70;91.70;;;;;;5055894;28;20048;-67
2021/06/29 10:19:16;;;;;;;40.47;31.15;;;24.80;91.50;;;;;;5055713;28;20025;-67
2021/06/29 10:21:41;;;;;;;31.40;24.33;;;24.90;90.80;;;;;;5055233;28;20039;-67
2021/06/29 10:24:10;;;;;;;35.63;25.57;;;24.90;90.50;;;;;;5054431;28;20094;-67
2021/06/29 10:26:39;;;;;;;28.73;21.70;;;24.90;90.30;;;;;;5053896;28;20029;-67
2021/06/29 10:29:09;;;;;;;;;;;24.90;90.30;;;;;;5054651;28;20021;-67
2021/06/29 10:31:41;;;;;;;27.30;21.73;;;24.90;90.50;;;;;;5055365;28;19958;-67
2021/06/29 10:34:07;;;;;;;29.88;22.50;;;24.90;90.10;;;;;;5055665;28;20017;-67
2021/06/29 10:36:39;;;;;;;31.60;22.98;;;25.00;89.40;;;;;;5055552;28;20504;-68
2021/06/29 10:39:10;;;;;;;28.08;21.55;;;25.10;88.80;;;;;;5054311;28;20053;-68
2021/06/29 10:41:43;;;;;;;28.02;21.55;;;25.30;87.90;;;;;;5055412;28;20033;-68
2021/06/29 10:44:12;;;;;;;28.58;21.67;;;25.40;86.80;;;;;;5054591;28;20120;-68
2021/06/29 10:46:45;;;;;;;25.35;19.73;;;25.40;85.80;;;;;;5055454;28;20504;-67
2021/06/29 10:49:38;;;;;;;21.15;16.77;;;25.40;85.60;;;;;;5054080;28;20028;-67
2021/06/29 10:52:22;;;;;;;19.50;15.85;;;25.40;85.10;;;;;;5055286;28;20029;-67
2021/06/29 10:54:50;;;;;;;20.63;17.17;;;25.50;85.10;;;;;;5053921;28;20119;-67
2021/06/29 10:57:19;;;;;;;17.65;14.48;;;25.60;84.60;;;;;;5055143;28;20025;-67
2021/06/29 10:59:49;;;;;;;19.23;16.17;;;25.70;84.40;;;;;;5054530;28;20104;-67
2021/06/29 11:02:35;;;;;;;20.52;16.17;;;25.90;84.10;;;;;;5054716;28;20025;-67
2021/06/29 11:05:08;;;;;;;22.75;17.25;;;26.00;83.30;;;;;;5053698;28;20062;-67
2021/06/29 11:07:45;;;;;;;18.75;15.93;;;25.90;83.30;;;;;;5052855;28;20185;-67
2021/06/29 11:10:14;;;;;;;19.45;16.85;;;25.80;83.60;;;;;;5052281;28;20025;-68
2021/06/29 11:12:52;;;;;;;18.57;15.13;;;25.60;83.50;;;;;;5054401;28;20655;-67
2021/06/29 11:15:19;;;;;;;17.98;14.52;;;25.70;83.50;;;;;;5052042;28;20021;-67
2021/06/29 11:17:49;;;;;;;18.55;15.75;;;25.70;83.30;;;;;;5054082;28;20098;-67
2021/06/29 11:20:19;;;;;;;17.05;15.10;;;25.80;82.70;;;;;;5054144;28;20040;-67
2021/06/29 11:23:05;;;;;;;13.02;11.50;;;25.90;82.30;;;;;;5052936;28;20404;-67
2021/06/29 11:25:38;;;;;;;21.83;17.73;;;26.00;82.30;;;;;;5051987;28;20032;-67
2021/06/29 11:28:05;;;;;;;20.27;17.35;;;26.20;82.30;;;;;;5054142;28;20053;-67
2021/06/29 11:30:50;;;;;;;22.10;17.38;;;26.40;82.30;;;;;;5052617;28;20021;-67
2021/06/29 11:33:34;;;;;;;20.48;17.65;;;26.60;81.80;;;;;;5051196;28;20056;-67
2021/06/29 11:36:01;;;;;;;20.48;16.88;;;26.80;81.30;;;;;;5052900;28;20021;-67
2021/06/29 11:38:41;;;;;;;21.75;18.95;;;26.80;80.80;;;;;;5054469;28;20044;-67
2021/06/29 11:41:27;;;;;;;28.80;21.83;;;26.80;79.40;;;;;;5053971;28;20021;-67
2021/06/29 11:43:57;;;;;;;22.80;20.25;;;26.80;79.00;;;;;;5052125;28;20078;-67
2021/06/29 11:46:52;;;;;;;25.00;21.55;;;26.80;79.30;;;;;;5052330;28;20060;-67
2021/06/29 11:49:42;;;;;;;23.92;20.67;;;26.70;78.90;;;;;;5025909;28;20086;-67
2021/06/29 11:52:29;;;;;;;25.58;21.35;;;26.60;79.50;;;;;;5051096;28;20048;-67
2021/06/29 11:55:17;;;;;;;23.33;19.73;;;26.50;80.00;;;;;;5051222;28;20017;-67
2021/06/29 11:57:48;;;;;;;20.65;18.05;;;26.40;80.50;;;;;;5051795;28;20017;-67
2021/06/29 12:00:19;;;;;;;21.20;18.23;;;26.40;81.00;;;;;;5053471;28;20048;-67
2021/06/29 12:02:45;;;;;;;20.88;18.35;;;26.50;80.70;;;;;;5053398;28;20124;-67
2021/06/29 12:05:18;;;;;;;18.10;16.17;;;26.70;80.60;;;;;;5053503;28;20017;-67
2021/06/29 12:07:50;;;;;;;19.67;17.58;;;26.70;80.60;;;;;;5051963;28;20112;-67
2021/06/29 12:10:33;;;;;;;15.73;14.02;;;26.80;80.40;;;;;;5053416;28;20021;-67
2021/06/29 12:13:01;;;;;;;20.17;17.63;;;26.80;80.10;;;;;;5052413;28;20036;-67
2021/06/29 12:15:33;;;;;;;17.58;15.75;;;26.80;80.10;;;;;;5053718;28;20024;-67
2021/06/29 12:18:05;;;;;;;22.42;19.52;;;26.80;80.20;;;;;;5053430;28;20028;-67
2021/06/29 12:20:33;;;;;;;20.67;17.90;;;26.90;79.10;;;;;;5052211;28;20390;-67
2021/06/29 12:23:01;;;;;;;18.83;16.83;;;27.00;79.20;;;;;;5053555;28;20547;-67
2021/06/29 12:25:28;;;;;;;14.05;12.68;;;27.30;78.70;;;;;;5053531;28;20388;-67
2021/06/29 12:28:03;;;;;;;13.75;12.35;;;27.60;78.50;;;;;;5053341;28;20040;-67
2021/06/29 12:30:31;;;;;;;14.07;12.75;;;27.80;78.20;;;;;;5053406;28;20024;-67
2021/06/29 12:32:58;;;;;;;12.70;11.40;;;27.90;77.30;;;;;;5053148;28;20021;-67
2021/06/29 12:35:29;;;;;;;15.07;13.55;;;28.00;76.70;;;;;;5053371;28;20021;-67
2021/06/29 12:37:58;;;;;;;15.73;14.10;;;28.10;75.60;;;;;;5053255;28;20021;-67